createdAt,value
2023-01-25T00:01:57.314Z,5.20
2023-01-25T00:04:31.153Z,5.18
2023-01-25T00:07:04.472Z,4.72
2023-01-25T00:09:37.806Z,4.20
2023-01-25T00:14:44.888Z,4.88
2023-01-25T00:17:20.007Z,4.53
2023-01-25T00:19:53.839Z,4.55
2023-01-25T00:22:27.414Z,3.88
2023-01-25T00:25:00.540Z,4.30
2023-01-25T00:27:33.919Z,3.83
2023-01-25T00:30:08.124Z,3.40
2023-01-25T00:32:59.011Z,3.97
2023-01-25T00:35:33.525Z,4.60
2023-01-25T00:38:26.081Z,3.90
2023-01-25T00:40:59.858Z,4.70
2023-01-25T00:43:34.097Z,4.15
2023-01-25T00:46:07.198Z,4.22
2023-01-25T00:48:41.911Z,3.45
2023-01-25T00:51:15.714Z,3.85
2023-01-25T00:53:49.295Z,4.30
2023-01-25T00:56:22.791Z,3.95
2023-01-25T00:58:56.278Z,4.35
2023-01-25T01:01:29.732Z,4.32
2023-01-25T01:04:05.800Z,5.22
2023-01-25T01:06:40.489Z,4.68
2023-01-25T01:09:16.742Z,5.00
2023-01-25T01:11:50.730Z,4.72
2023-01-25T01:14:25.217Z,4.95
2023-01-25T01:16:58.970Z,5.25
2023-01-25T01:19:33.784Z,3.72
2023-01-25T01:22:07.502Z,3.97
2023-01-25T01:24:41.771Z,4.22
2023-01-25T01:27:15.102Z,4.70
2023-01-25T01:29:48.233Z,4.85
2023-01-25T01:32:21.713Z,4.55
2023-01-25T01:34:56.348Z,4.40
2023-01-25T01:37:29.815Z,3.63
2023-01-25T01:40:03.356Z,3.95
2023-01-25T01:42:57.432Z,3.53
2023-01-25T01:45:50.716Z,3.67
2023-01-25T01:48:33.992Z,3.85
2023-01-25T01:51:14.651Z,5.30
2023-01-25T01:53:51.236Z,4.03
2023-01-25T01:56:31.428Z,4.25
2023-01-25T01:59:07.778Z,3.70
2023-01-25T02:01:42.746Z,2.95
2023-01-25T02:04:19.985Z,2.83
2023-01-25T02:07:00.401Z,3.13
2023-01-25T02:09:37.153Z,3.47
2023-01-25T02:12:14.074Z,3.10
2023-01-25T02:14:50.565Z,3.25
2023-01-25T02:17:27.998Z,3.25
2023-01-25T02:20:08.416Z,2.70
2023-01-25T02:22:48.602Z,2.60
2023-01-25T02:25:23.476Z,3.08
2023-01-25T02:28:02.339Z,3.42
2023-01-25T02:30:35.655Z,3.08
2023-01-25T02:33:09.003Z,4.32
2023-01-25T02:35:45.632Z,3.38
2023-01-25T02:38:21.355Z,3.67
2023-01-25T02:41:00.309Z,4.63
2023-01-25T02:43:35.423Z,3.80
2023-01-25T02:46:14.402Z,4.10
2023-01-25T02:48:47.635Z,3.65
2023-01-25T02:51:21.663Z,4.03
2023-01-25T02:53:56.021Z,3.60
2023-01-25T02:56:31.386Z,3.83
2023-01-25T02:59:05.817Z,3.60
2023-01-25T03:01:40.750Z,3.72
2023-01-25T03:04:14.460Z,4.35
2023-01-25T03:06:48.077Z,4.60
2023-01-25T03:09:21.519Z,3.90
2023-01-25T03:11:57.371Z,4.95
2023-01-25T03:14:31.103Z,5.13
2023-01-25T03:19:37.908Z,5.20
2023-01-25T03:24:45.311Z,4.45
2023-01-25T03:27:19.879Z,4.57
2023-01-25T03:29:53.053Z,4.63
2023-01-25T03:32:26.429Z,5.00
2023-01-25T03:34:59.912Z,5.32
2023-01-25T03:37:34.197Z,6.72
2023-01-25T03:40:09.214Z,5.53
2023-01-25T03:42:44.051Z,5.68
2023-01-25T03:45:17.506Z,5.72
2023-01-25T03:47:50.852Z,5.47
2023-01-25T03:50:24.364Z,5.60
2023-01-25T03:53:14.793Z,5.97
2023-01-25T03:55:49.727Z,5.15
2023-01-25T03:58:25.147Z,5.85
2023-01-25T04:01:00.241Z,6.57
2023-01-25T04:03:34.509Z,5.63
2023-01-25T04:06:08.648Z,6.38
2023-01-25T04:11:14.979Z,5.25
2023-01-25T04:16:23.676Z,6.00
2023-01-25T04:21:31.130Z,7.93
2023-01-25T04:24:04.981Z,6.00
2023-01-25T04:26:38.508Z,7.30
2023-01-25T04:29:13.389Z,6.05
2023-01-25T04:31:46.721Z,6.53
2023-01-25T04:34:20.053Z,6.80
2023-01-25T04:36:53.705Z,7.53
2023-01-25T04:39:27.236Z,7.15
2023-01-25T04:42:00.764Z,6.32
2023-01-25T04:44:35.611Z,6.22
2023-01-25T04:47:08.813Z,6.00
2023-01-25T04:49:42.195Z,6.53
2023-01-25T04:52:15.558Z,7.35
2023-01-25T04:54:49.200Z,7.05
2023-01-25T04:57:22.745Z,7.00
2023-01-25T04:59:57.393Z,7.97
2023-01-25T05:02:30.810Z,7.00
2023-01-25T05:05:04.602Z,6.80
2023-01-25T05:10:12.450Z,6.78
2023-01-25T05:12:46.549Z,7.28
2023-01-25T05:15:21.744Z,6.78
2023-01-25T05:17:55.185Z,7.53
2023-01-25T05:20:28.477Z,7.22
2023-01-25T05:23:01.924Z,7.75
2023-01-25T05:25:52.923Z,7.32
2023-01-25T05:28:26.535Z,7.38
2023-01-25T05:31:04.265Z,7.82
2023-01-25T05:33:37.817Z,7.68
2023-01-25T05:36:11.241Z,7.10
2023-01-25T05:38:44.581Z,8.10
2023-01-25T05:41:17.801Z,8.93
2023-01-25T05:43:51.016Z,7.70
2023-01-25T05:46:26.020Z,8.07
2023-01-25T05:48:59.795Z,7.65
2023-01-25T05:51:33.571Z,8.93
2023-01-25T05:54:07.214Z,7.45
2023-01-25T05:56:40.673Z,8.60
2023-01-25T05:59:14.210Z,8.45
2023-01-25T06:01:49.095Z,8.40
2023-01-25T06:04:22.873Z,7.78
2023-01-25T06:06:56.351Z,7.65
2023-01-25T06:09:29.658Z,7.75
2023-01-25T06:12:03.895Z,8.52
2023-01-25T06:14:37.337Z,9.07
2023-01-25T06:17:12.327Z,11.05
2023-01-25T06:19:46.122Z,10.63
2023-01-25T06:22:19.959Z,7.88
2023-01-25T06:24:53.193Z,8.05
2023-01-25T06:27:26.418Z,8.70
2023-01-25T06:29:59.940Z,8.35
2023-01-25T06:32:35.097Z,10.35
2023-01-25T06:35:09.376Z,11.13
2023-01-25T06:37:43.324Z,13.60
2023-01-25T06:40:17.271Z,13.85
2023-01-25T06:42:50.477Z,11.38
2023-01-25T06:45:23.848Z,10.20
2023-01-25T06:47:58.569Z,8.15
2023-01-25T06:50:31.947Z,9.32
2023-01-25T06:53:05.510Z,9.88
2023-01-25T06:55:38.962Z,7.97
2023-01-25T06:58:13.691Z,7.45
2023-01-25T07:00:47.123Z,7.22
2023-01-25T07:03:21.803Z,5.68
2023-01-25T07:05:59.257Z,8.35
2023-01-25T07:08:33.486Z,11.80
2023-01-25T07:11:09.619Z,8.02
2023-01-25T07:13:45.600Z,16.30
2023-01-25T07:16:20.553Z,8.35
2023-01-25T07:18:55.565Z,7.90
2023-01-25T07:21:29.510Z,6.15
2023-01-25T07:24:03.888Z,6.50
2023-01-25T07:26:37.156Z,6.18
2023-01-25T07:29:14.362Z,6.70
2023-01-25T07:31:48.117Z,7.13
2023-01-25T07:34:23.243Z,6.03
2023-01-25T07:36:56.979Z,5.57
2023-01-25T07:39:30.256Z,6.47
2023-01-25T07:42:03.782Z,6.78
2023-01-25T07:44:37.341Z,6.13
2023-01-25T07:47:10.944Z,4.82
2023-01-25T07:49:45.843Z,4.93
2023-01-25T07:52:19.479Z,4.95
2023-01-25T07:54:52.909Z,5.22
2023-01-25T07:57:28.450Z,5.80
2023-01-25T08:00:01.956Z,5.97
2023-01-25T08:02:35.398Z,5.50
2023-01-25T08:05:11.772Z,5.03
2023-01-25T08:07:45.375Z,5.30
2023-01-25T08:10:18.552Z,5.88
2023-01-25T08:15:25.778Z,5.35
2023-01-25T08:18:00.797Z,6.20
2023-01-25T08:20:35.707Z,6.95
2023-01-25T08:23:09.562Z,6.00
2023-01-25T08:25:42.925Z,8.20
2023-01-25T08:28:16.112Z,7.60
2023-01-25T08:30:57.194Z,8.10
2023-01-25T08:33:31.759Z,6.78
2023-01-25T08:36:08.928Z,5.82
2023-01-25T08:38:42.629Z,5.07
2023-01-25T08:41:17.710Z,12.30
2023-01-25T08:43:53.695Z,9.10
2023-01-25T08:46:31.369Z,22.48
2023-01-25T08:49:05.870Z,13.95
2023-01-25T08:51:40.898Z,11.57
2023-01-25T08:54:14.258Z,5.70
2023-01-25T08:56:47.448Z,4.25
2023-01-25T08:59:20.809Z,4.82
2023-01-25T09:01:54.288Z,5.80
2023-01-25T09:04:28.599Z,4.22
2023-01-25T09:07:03.475Z,4.78
2023-01-25T09:09:36.699Z,5.47
2023-01-25T09:12:11.426Z,6.97
2023-01-25T09:14:45.457Z,5.65
2023-01-25T09:17:19.393Z,4.35
2023-01-25T09:22:27.583Z,4.43
2023-01-25T09:25:01.921Z,3.60
2023-01-25T09:27:35.061Z,4.25
2023-01-25T09:30:18.149Z,4.10
2023-01-25T09:32:52.487Z,4.90
2023-01-25T09:38:04.687Z,4.45
2023-01-25T09:40:45.917Z,4.57
2023-01-25T09:43:32.422Z,4.50
2023-01-25T09:46:18.790Z,4.35
2023-01-25T09:49:07.616Z,5.15
2023-01-25T09:51:58.865Z,5.00
2023-01-25T09:54:46.458Z,6.70
2023-01-25T09:57:25.291Z,7.55
2023-01-25T10:00:04.090Z,6.53
2023-01-25T10:02:44.496Z,6.18
2023-01-25T10:05:22.954Z,4.55
2023-01-25T10:08:01.754Z,6.18
2023-01-25T10:10:39.443Z,5.07
2023-01-25T10:13:16.822Z,4.75
2023-01-25T10:15:54.244Z,4.45
2023-01-25T10:18:34.786Z,4.70
2023-01-25T10:21:14.551Z,6.47
2023-01-25T10:24:11.651Z,5.70
2023-01-25T10:26:52.649Z,5.97
2023-01-25T10:29:29.233Z,5.72
2023-01-25T10:32:19.640Z,5.65
2023-01-25T10:34:57.273Z,8.50
2023-01-25T10:37:35.767Z,6.28
2023-01-25T10:40:17.912Z,5.10
2023-01-25T10:42:58.018Z,4.15
2023-01-25T10:45:32.058Z,4.57
2023-01-25T10:48:10.385Z,5.90
2023-01-25T10:50:49.057Z,4.97
2023-01-25T10:53:31.146Z,4.28
2023-01-25T10:56:17.132Z,4.32
2023-01-25T10:58:54.489Z,4.88
2023-01-25T11:01:31.303Z,3.65
2023-01-25T11:04:24.248Z,5.70
2023-01-25T11:06:57.604Z,5.32
2023-01-25T11:09:36.864Z,6.18
2023-01-25T11:12:19.680Z,6.13
2023-01-25T11:14:55.087Z,4.93
2023-01-25T11:17:31.901Z,5.60
2023-01-25T11:20:15.884Z,7.72
2023-01-25T11:22:53.799Z,5.90
2023-01-25T11:25:30.925Z,3.97
2023-01-25T11:28:18.993Z,7.57
2023-01-25T11:30:54.760Z,7.30
2023-01-25T11:33:28.399Z,6.30
2023-01-25T11:36:19.953Z,6.07
2023-01-25T11:39:04.325Z,5.38
2023-01-25T11:41:52.081Z,7.25
2023-01-25T11:45:09.787Z,6.82
2023-01-25T11:47:59.782Z,5.85
2023-01-25T11:50:38.995Z,10.27
2023-01-25T11:53:34.766Z,9.07
2023-01-25T11:56:16.547Z,6.97
2023-01-25T11:59:08.439Z,8.55
2023-01-25T12:01:59.224Z,8.00
2023-01-25T12:05:09.664Z,4.63
2023-01-25T12:08:06.845Z,5.68
2023-01-25T12:10:51.643Z,6.85
2023-01-25T12:13:34.401Z,7.00
2023-01-25T12:16:30.959Z,8.57
2023-01-25T12:19:30.244Z,7.78
2023-01-25T12:22:21.224Z,6.20
2023-01-25T12:25:02.418Z,5.60
2023-01-25T12:27:51.303Z,7.03
2023-01-25T12:30:32.680Z,7.00
2023-01-25T12:33:14.821Z,5.38
2023-01-25T12:35:57.030Z,5.68
2023-01-25T12:38:39.296Z,4.35
2023-01-25T12:41:24.147Z,4.47
2023-01-25T12:44:04.599Z,5.68
2023-01-25T12:46:43.650Z,6.15
2023-01-25T12:49:25.647Z,6.43
2023-01-25T12:52:05.064Z,7.13
2023-01-25T12:54:43.990Z,7.50
2023-01-25T12:57:23.737Z,12.20
2023-01-25T13:00:07.554Z,11.05
2023-01-25T13:02:57.555Z,10.43
2023-01-25T13:05:37.662Z,6.85
2023-01-25T13:08:31.123Z,7.15
2023-01-25T13:11:17.679Z,5.47
2023-01-25T13:13:51.819Z,7.50
2023-01-25T13:16:36.364Z,5.72
2023-01-25T13:19:21.169Z,4.60
2023-01-25T13:21:56.685Z,5.28
2023-01-25T13:24:31.120Z,6.75
2023-01-25T13:27:26.101Z,6.53
2023-01-25T13:30:01.556Z,9.27
2023-01-25T13:33:07.307Z,10.50
2023-01-25T13:35:45.095Z,8.48
2023-01-25T13:38:30.966Z,8.48
2023-01-25T13:41:10.826Z,8.65
2023-01-25T13:43:55.765Z,8.13
2023-01-25T13:46:29.136Z,8.40
2023-01-25T13:49:08.220Z,11.32
2023-01-25T13:51:43.511Z,14.95
2023-01-25T13:54:18.178Z,8.55
2023-01-25T13:57:05.532Z,6.35
2023-01-25T13:59:40.824Z,5.85
2023-01-25T14:02:19.939Z,5.55
2023-01-25T14:04:54.152Z,5.68
2023-01-25T14:07:33.181Z,7.05
2023-01-25T14:10:11.660Z,6.57
2023-01-25T14:12:47.691Z,8.13
2023-01-25T14:15:25.088Z,10.30
2023-01-25T14:18:20.246Z,12.43
2023-01-25T14:20:53.738Z,12.32
2023-01-25T14:26:02.144Z,11.60
2023-01-25T14:28:35.869Z,11.35
2023-01-25T14:31:22.918Z,11.10
2023-01-25T14:33:58.988Z,13.00
2023-01-25T14:36:35.331Z,12.65
2023-01-25T14:39:21.657Z,12.73
2023-01-25T14:42:01.488Z,13.25
2023-01-25T14:44:36.265Z,9.18
2023-01-25T14:47:31.363Z,9.80
2023-01-25T14:50:33.324Z,10.00
2023-01-25T14:53:13.694Z,6.10
2023-01-25T14:55:48.186Z,5.78
2023-01-25T14:58:25.029Z,5.40
2023-01-25T15:01:01.815Z,7.38
2023-01-25T15:03:44.751Z,6.82
2023-01-25T15:06:18.381Z,8.37
2023-01-25T15:08:51.945Z,6.75
2023-01-25T15:11:49.891Z,6.22
2023-01-25T15:14:23.757Z,4.93
2023-01-25T15:19:34.669Z,7.13
2023-01-25T15:22:09.797Z,13.95
2023-01-25T15:24:50.256Z,12.98
2023-01-25T15:27:28.051Z,11.98
2023-01-25T15:30:02.608Z,11.02
2023-01-25T15:32:36.002Z,9.02
2023-01-25T15:35:15.405Z,8.48
2023-01-25T15:37:49.708Z,7.75
2023-01-25T15:40:23.031Z,6.10
2023-01-25T15:42:56.403Z,7.15
2023-01-25T15:45:30.046Z,5.35
2023-01-25T15:48:03.320Z,5.47
2023-01-25T15:50:38.144Z,7.70
2023-01-25T15:53:16.077Z,6.20
2023-01-25T15:55:53.526Z,5.95
2023-01-25T15:58:30.414Z,5.35
2023-01-25T16:01:04.544Z,8.40
2023-01-25T16:03:41.504Z,8.27
2023-01-25T16:06:38.725Z,7.82
2023-01-25T16:09:18.677Z,12.60
2023-01-25T16:11:54.761Z,20.85
2023-01-25T16:14:31.464Z,20.27
2023-01-25T16:17:06.112Z,23.95
2023-01-25T16:19:39.792Z,21.70
2023-01-25T16:22:14.920Z,21.17
2023-01-25T16:24:48.341Z,22.92
2023-01-25T16:27:25.749Z,26.00
2023-01-25T16:29:59.142Z,26.45
2023-01-25T16:35:06.792Z,26.60
2023-01-25T16:37:41.625Z,19.98
2023-01-25T16:40:23.644Z,17.58
2023-01-25T16:42:57.380Z,16.00
2023-01-25T16:45:32.030Z,14.35
2023-01-25T16:48:05.707Z,11.68
2023-01-25T16:50:38.873Z,13.90
2023-01-25T16:53:13.783Z,15.88
2023-01-25T16:55:48.263Z,14.50
2023-01-25T16:58:21.560Z,14.50
2023-01-25T17:00:55.117Z,14.25
2023-01-25T17:06:02.973Z,12.55
2023-01-25T17:08:37.608Z,11.68
2023-01-25T17:11:10.794Z,12.82
2023-01-25T17:16:18.403Z,11.75
2023-01-25T17:18:55.251Z,10.60
2023-01-25T17:21:29.612Z,9.90
2023-01-25T17:24:04.438Z,10.10
2023-01-25T17:26:37.705Z,10.15
2023-01-25T17:29:12.142Z,9.43
2023-01-25T17:31:45.691Z,12.32
2023-01-25T17:34:20.236Z,12.45
2023-01-25T17:36:54.060Z,12.90
2023-01-25T17:42:01.878Z,12.35
2023-01-25T17:44:35.134Z,13.23
2023-01-25T17:47:09.149Z,13.88
2023-01-25T17:49:43.038Z,14.40
2023-01-25T17:52:16.365Z,13.65
2023-01-25T17:54:51.185Z,10.65
2023-01-25T17:57:26.396Z,11.48
2023-01-25T17:59:59.668Z,10.57
2023-01-25T18:02:33.045Z,11.20
2023-01-25T18:05:08.016Z,9.63
2023-01-25T18:07:41.495Z,9.40
2023-01-25T18:10:17.030Z,10.13
2023-01-25T18:13:04.042Z,10.63
2023-01-25T18:15:38.060Z,9.30
2023-01-25T18:18:11.358Z,10.95
2023-01-25T18:20:44.592Z,11.63
2023-01-25T18:23:17.608Z,10.48
2023-01-25T18:25:52.361Z,10.18
2023-01-25T18:28:26.833Z,8.73
2023-01-25T18:31:02.850Z,10.60
2023-01-25T18:33:36.583Z,9.23
2023-01-25T18:36:11.751Z,8.73
2023-01-25T18:38:45.432Z,8.27
2023-01-25T18:41:20.260Z,7.72
2023-01-25T18:43:53.964Z,8.43
2023-01-25T18:46:27.923Z,9.00
2023-01-25T18:49:01.667Z,9.80
2023-01-25T18:51:48.637Z,8.20
2023-01-25T18:54:29.134Z,10.10
2023-01-25T18:57:04.429Z,8.63
2023-01-25T18:59:38.361Z,11.40
2023-01-25T19:04:46.786Z,9.88
2023-01-25T19:07:20.509Z,9.43
2023-01-25T19:12:29.631Z,8.57
2023-01-25T19:15:03.287Z,9.23
2023-01-25T19:20:12.294Z,11.00
2023-01-25T19:22:48.533Z,10.88
2023-01-25T19:25:23.729Z,10.23
2023-01-25T19:27:59.372Z,12.25
2023-01-25T19:30:33.284Z,11.95
2023-01-25T19:33:07.876Z,10.35
2023-01-25T19:35:41.654Z,11.52
2023-01-25T19:40:49.295Z,10.85
2023-01-25T19:43:24.052Z,10.18
2023-01-25T19:46:09.191Z,12.00
2023-01-25T19:48:45.227Z,10.27
2023-01-25T19:51:21.196Z,10.43
2023-01-25T19:53:59.503Z,9.35
2023-01-25T19:56:35.982Z,9.82
2023-01-25T19:59:13.918Z,9.05
2023-01-25T20:01:48.327Z,9.25
2023-01-25T20:04:25.331Z,8.48
2023-01-25T20:06:59.183Z,10.40
2023-01-25T20:09:32.988Z,10.38
2023-01-25T20:12:08.488Z,8.95
2023-01-25T20:14:44.383Z,8.13
2023-01-25T20:17:20.359Z,8.80
2023-01-25T20:19:53.971Z,9.05
2023-01-25T20:22:27.196Z,8.75
2023-01-25T20:25:01.226Z,9.63
2023-01-25T20:27:35.010Z,9.25
2023-01-25T20:30:11.894Z,7.82
2023-01-25T20:32:45.158Z,8.05
2023-01-25T20:35:18.371Z,8.15
2023-01-25T20:37:52.136Z,8.73
2023-01-25T20:42:58.457Z,8.35
2023-01-25T20:45:34.915Z,6.93
2023-01-25T20:48:08.263Z,7.80
2023-01-25T20:50:41.450Z,8.43
2023-01-25T20:53:14.974Z,8.75
2023-01-25T20:55:55.603Z,8.02
2023-01-25T20:58:29.721Z,8.38
2023-01-25T21:03:37.917Z,9.02
2023-01-25T21:06:12.248Z,8.48
2023-01-25T21:08:45.698Z,9.07
2023-01-25T21:11:18.991Z,7.32
2023-01-25T21:16:29.192Z,7.82
2023-01-25T21:19:06.487Z,9.02
2023-01-25T21:21:40.950Z,7.55
2023-01-25T21:24:14.114Z,8.35
2023-01-25T21:26:47.316Z,8.80
2023-01-25T21:29:21.222Z,10.43
2023-01-25T21:37:04.446Z,8.63
2023-01-25T21:39:37.679Z,6.97
2023-01-25T21:42:11.465Z,7.80
2023-01-25T21:45:02.403Z,8.43
2023-01-25T21:47:37.067Z,7.18
2023-01-25T21:50:29.543Z,7.55
2023-01-25T21:53:02.913Z,7.35
2023-01-25T21:58:09.738Z,7.20
2023-01-25T22:00:43.133Z,8.48
2023-01-25T22:08:29.933Z,8.77
2023-01-25T22:11:03.824Z,12.35
2023-01-25T22:13:38.269Z,10.48
2023-01-25T22:16:13.343Z,10.27
2023-01-25T22:18:48.974Z,10.30
2023-01-25T22:21:23.398Z,9.77
2023-01-25T22:23:56.652Z,8.73
2023-01-25T22:26:34.169Z,7.82
2023-01-25T22:29:07.447Z,7.05
2023-01-25T22:31:41.416Z,9.10
2023-01-25T22:34:17.113Z,7.97
2023-01-25T22:36:50.238Z,8.20
2023-01-25T22:39:23.471Z,8.63
2023-01-25T22:41:56.946Z,8.40
2023-01-25T22:44:30.389Z,7.25
2023-01-25T22:47:04.000Z,8.45
2023-01-25T22:49:38.875Z,8.15
2023-01-25T22:52:11.976Z,8.73
2023-01-25T22:54:45.938Z,9.10
2023-01-25T22:57:19.602Z,8.52
2023-01-25T22:59:52.828Z,9.57
2023-01-25T23:02:26.287Z,10.50
2023-01-25T23:05:01.207Z,8.43
2023-01-25T23:07:34.429Z,9.48
2023-01-25T23:10:08.642Z,7.93
2023-01-25T23:12:50.003Z,8.80
2023-01-25T23:15:24.383Z,8.05
2023-01-25T23:20:50.112Z,6.22
2023-01-25T23:23:23.848Z,8.32
2023-01-25T23:25:58.164Z,9.02
2023-01-25T23:28:32.041Z,8.80
2023-01-25T23:33:52.802Z,8.30
2023-01-25T23:36:29.497Z,8.73
2023-01-25T23:39:03.113Z,8.48
2023-01-25T23:41:36.232Z,7.45
2023-01-25T23:44:10.233Z,8.57
2023-01-25T23:46:43.595Z,7.68
2023-01-25T23:49:17.446Z,9.45
2023-01-25T23:57:00.312Z,9.02
2023-01-25T23:59:34.991Z,7.90
